sensor_id;sensor_type;location;lat;lon;timestamp;temperature;humidity
43697;DHT22;29301;47.620;19.560;2023-02-02T00:01:09;4.60;93.70
43697;DHT22;29301;47.620;19.560;2023-02-02T00:03:35;4.60;93.90
43697;DHT22;29301;47.620;19.560;2023-02-02T00:06:02;4.60;94.50
43697;DHT22;29301;47.620;19.560;2023-02-02T00:08:28;4.60;95.00
43697;DHT22;29301;47.620;19.560;2023-02-02T00:10:54;4.60;95.70
43697;DHT22;29301;47.620;19.560;2023-02-02T00:13:19;4.50;96.50
43697;DHT22;29301;47.620;19.560;2023-02-02T00:15:45;4.50;96.80
43697;DHT22;29301;47.620;19.560;2023-02-02T00:18:11;4.40;97.50
43697;DHT22;29301;47.620;19.560;2023-02-02T00:20:36;4.40;97.70
43697;DHT22;29301;47.620;19.560;2023-02-02T00:23:02;4.40;97.10
43697;DHT22;29301;47.620;19.560;2023-02-02T00:25:29;4.50;97.10
43697;DHT22;29301;47.620;19.560;2023-02-02T00:27:55;4.50;96.70
43697;DHT22;29301;47.620;19.560;2023-02-02T00:30:20;4.50;96.70
43697;DHT22;29301;47.620;19.560;2023-02-02T00:32:46;4.50;96.30
43697;DHT22;29301;47.620;19.560;2023-02-02T00:35:14;4.50;95.40
43697;DHT22;29301;47.620;19.560;2023-02-02T00:37:40;4.60;95.20
43697;DHT22;29301;47.620;19.560;2023-02-02T00:40:06;4.60;94.90
43697;DHT22;29301;47.620;19.560;2023-02-02T00:42:32;4.50;94.60
43697;DHT22;29301;47.620;19.560;2023-02-02T00:44:58;4.60;94.20
43697;DHT22;29301;47.620;19.560;2023-02-02T00:47:43;4.50;93.60
43697;DHT22;29301;47.620;19.560;2023-02-02T00:50:11;4.50;93.50
43697;DHT22;29301;47.620;19.560;2023-02-02T00:52:37;4.50;93.70
43697;DHT22;29301;47.620;19.560;2023-02-02T00:55:04;4.40;94.40
43697;DHT22;29301;47.620;19.560;2023-02-02T00:57:29;4.40;94.30
43697;DHT22;29301;47.620;19.560;2023-02-02T00:59:55;4.40;94.30
43697;DHT22;29301;47.620;19.560;2023-02-02T01:02:21;4.30;94.70
43697;DHT22;29301;47.620;19.560;2023-02-02T01:04:47;4.30;94.60
43697;DHT22;29301;47.620;19.560;2023-02-02T01:07:13;4.30;94.90
43697;DHT22;29301;47.620;19.560;2023-02-02T01:09:38;4.30;95.20
43697;DHT22;29301;47.620;19.560;2023-02-02T01:12:04;4.30;95.10
43697;DHT22;29301;47.620;19.560;2023-02-02T01:14:30;4.30;94.60
43697;DHT22;29301;47.620;19.560;2023-02-02T01:16:55;4.30;94.00
43697;DHT22;29301;47.620;19.560;2023-02-02T01:19:21;4.30;93.30
43697;DHT22;29301;47.620;19.560;2023-02-02T01:21:47;4.40;93.50
43697;DHT22;29301;47.620;19.560;2023-02-02T01:24:13;4.30;93.50
43697;DHT22;29301;47.620;19.560;2023-02-02T01:26:38;4.30;93.90
43697;DHT22;29301;47.620;19.560;2023-02-02T01:29:04;4.20;94.30
43697;DHT22;29301;47.620;19.560;2023-02-02T01:31:30;4.20;94.60
43697;DHT22;29301;47.620;19.560;2023-02-02T01:33:55;4.10;95.10
43697;DHT22;29301;47.620;19.560;2023-02-02T01:36:22;4.10;95.10
43697;DHT22;29301;47.620;19.560;2023-02-02T01:38:49;4.10;94.90
43697;DHT22;29301;47.620;19.560;2023-02-02T01:41:20;4.10;94.60
43697;DHT22;29301;47.620;19.560;2023-02-02T01:46:37;4.10;93.40
43697;DHT22;29301;47.620;19.560;2023-02-02T01:49:09;4.10;92.10
43697;DHT22;29301;47.620;19.560;2023-02-02T01:51:42;4.20;90.40
43697;DHT22;29301;47.620;19.560;2023-02-02T01:54:20;4.20;89.70
43697;DHT22;29301;47.620;19.560;2023-02-02T01:56:51;4.20;87.70
43697;DHT22;29301;47.620;19.560;2023-02-02T01:59:19;4.30;86.50
43697;DHT22;29301;47.620;19.560;2023-02-02T02:01:46;4.30;85.60
43697;DHT22;29301;47.620;19.560;2023-02-02T02:04:13;4.30;84.40
43697;DHT22;29301;47.620;19.560;2023-02-02T02:06:39;4.30;84.00
43697;DHT22;29301;47.620;19.560;2023-02-02T02:09:06;4.30;84.70
43697;DHT22;29301;47.620;19.560;2023-02-02T02:11:33;4.20;84.60
43697;DHT22;29301;47.620;19.560;2023-02-02T02:14:02;4.30;84.30
43697;DHT22;29301;47.620;19.560;2023-02-02T02:20:05;4.20;83.70
43697;DHT22;29301;47.620;19.560;2023-02-02T02:37:12;4.20;82.50
43697;DHT22;29301;47.620;19.560;2023-02-02T02:39:54;4.20;82.40
43697;DHT22;29301;47.620;19.560;2023-02-02T02:42:25;4.20;82.50
43697;DHT22;29301;47.620;19.560;2023-02-02T02:44:54;4.20;83.40
43697;DHT22;29301;47.620;19.560;2023-02-02T02:47:21;4.20;82.90
43697;DHT22;29301;47.620;19.560;2023-02-02T02:49:48;4.20;83.60
43697;DHT22;29301;47.620;19.560;2023-02-02T02:52:14;4.20;84.60
43697;DHT22;29301;47.620;19.560;2023-02-02T02:54:44;4.10;84.80
43697;DHT22;29301;47.620;19.560;2023-02-02T03:08:04;3.90;88.10
43697;DHT22;29301;47.620;19.560;2023-02-02T03:10:30;3.90;88.30
43697;DHT22;29301;47.620;19.560;2023-02-02T03:12:57;3.80;88.20
43697;DHT22;29301;47.620;19.560;2023-02-02T03:15:23;3.90;88.60
43697;DHT22;29301;47.620;19.560;2023-02-02T03:17:50;3.90;87.40
43697;DHT22;29301;47.620;19.560;2023-02-02T03:20:17;3.90;87.10
43697;DHT22;29301;47.620;19.560;2023-02-02T03:22:43;3.90;87.90
43697;DHT22;29301;47.620;19.560;2023-02-02T03:25:09;3.90;88.50
43697;DHT22;29301;47.620;19.560;2023-02-02T03:27:37;3.90;88.80
43697;DHT22;29301;47.620;19.560;2023-02-02T03:30:06;3.90;88.50
43697;DHT22;29301;47.620;19.560;2023-02-02T03:32:35;3.80;88.60
43697;DHT22;29301;47.620;19.560;2023-02-02T03:35:00;3.80;89.20
43697;DHT22;29301;47.620;19.560;2023-02-02T03:37:26;3.80;88.80
43697;DHT22;29301;47.620;19.560;2023-02-02T03:39:52;3.80;88.00
43697;DHT22;29301;47.620;19.560;2023-02-02T03:42:17;3.90;87.80
43697;DHT22;29301;47.620;19.560;2023-02-02T03:44:43;3.90;87.80
43697;DHT22;29301;47.620;19.560;2023-02-02T03:47:09;3.90;87.30
43697;DHT22;29301;47.620;19.560;2023-02-02T03:49:34;3.90;87.80
43697;DHT22;29301;47.620;19.560;2023-02-02T03:52:00;3.90;87.40
43697;DHT22;29301;47.620;19.560;2023-02-02T03:54:29;3.90;87.60
43697;DHT22;29301;47.620;19.560;2023-02-02T03:56:55;3.90;87.90
43697;DHT22;29301;47.620;19.560;2023-02-02T03:59:21;3.90;87.70
43697;DHT22;29301;47.620;19.560;2023-02-02T04:01:47;3.80;87.80
43697;DHT22;29301;47.620;19.560;2023-02-02T04:04:13;3.80;87.90
43697;DHT22;29301;47.620;19.560;2023-02-02T04:06:38;3.80;88.60
43697;DHT22;29301;47.620;19.560;2023-02-02T04:09:04;3.80;89.00
43697;DHT22;29301;47.620;19.560;2023-02-02T04:11:30;3.80;88.70
43697;DHT22;29301;47.620;19.560;2023-02-02T04:13:55;3.80;89.30
43697;DHT22;29301;47.620;19.560;2023-02-02T04:16:21;3.80;89.80
43697;DHT22;29301;47.620;19.560;2023-02-02T04:18:47;3.80;89.40
43697;DHT22;29301;47.620;19.560;2023-02-02T04:21:12;3.80;89.20
43697;DHT22;29301;47.620;19.560;2023-02-02T04:23:38;3.80;88.50
43697;DHT22;29301;47.620;19.560;2023-02-02T04:26:04;3.80;88.40
43697;DHT22;29301;47.620;19.560;2023-02-02T04:28:30;3.80;88.30
43697;DHT22;29301;47.620;19.560;2023-02-02T04:30:56;3.80;88.60
43697;DHT22;29301;47.620;19.560;2023-02-02T04:33:23;3.70;89.20
43697;DHT22;29301;47.620;19.560;2023-02-02T04:35:49;3.70;89.00
43697;DHT22;29301;47.620;19.560;2023-02-02T04:38:15;3.70;89.10
43697;DHT22;29301;47.620;19.560;2023-02-02T04:40:43;3.80;88.60
43697;DHT22;29301;47.620;19.560;2023-02-02T04:43:09;3.80;88.90
43697;DHT22;29301;47.620;19.560;2023-02-02T04:45:36;3.70;88.70
43697;DHT22;29301;47.620;19.560;2023-02-02T04:48:02;3.70;89.10
43697;DHT22;29301;47.620;19.560;2023-02-02T04:50:28;3.70;88.90
43697;DHT22;29301;47.620;19.560;2023-02-02T04:52:54;3.70;88.70
43697;DHT22;29301;47.620;19.560;2023-02-02T04:55:20;3.70;88.90
43697;DHT22;29301;47.620;19.560;2023-02-02T04:57:45;3.70;89.10
43697;DHT22;29301;47.620;19.560;2023-02-02T05:00:12;3.70;89.40
43697;DHT22;29301;47.620;19.560;2023-02-02T05:02:39;3.70;89.70
43697;DHT22;29301;47.620;19.560;2023-02-02T05:05:07;3.70;89.90
43697;DHT22;29301;47.620;19.560;2023-02-02T05:07:34;3.70;90.00
43697;DHT22;29301;47.620;19.560;2023-02-02T05:10:00;3.70;89.80
43697;DHT22;29301;47.620;19.560;2023-02-02T05:12:25;3.70;90.00
43697;DHT22;29301;47.620;19.560;2023-02-02T05:14:52;3.70;90.00
43697;DHT22;29301;47.620;19.560;2023-02-02T05:17:17;3.70;90.10
43697;DHT22;29301;47.620;19.560;2023-02-02T05:19:43;3.70;90.20
43697;DHT22;29301;47.620;19.560;2023-02-02T05:22:09;3.60;90.40
43697;DHT22;29301;47.620;19.560;2023-02-02T05:24:35;3.60;90.50
43697;DHT22;29301;47.620;19.560;2023-02-02T05:27:00;3.60;90.60
43697;DHT22;29301;47.620;19.560;2023-02-02T05:29:27;3.60;90.70
43697;DHT22;29301;47.620;19.560;2023-02-02T05:31:53;3.50;90.70
43697;DHT22;29301;47.620;19.560;2023-02-02T05:34:19;3.50;90.70
43697;DHT22;29301;47.620;19.560;2023-02-02T05:36:45;3.60;90.80
43697;DHT22;29301;47.620;19.560;2023-02-02T05:39:11;3.50;90.80
43697;DHT22;29301;47.620;19.560;2023-02-02T05:41:37;3.50;90.90
43697;DHT22;29301;47.620;19.560;2023-02-02T05:44:02;3.50;91.10
43697;DHT22;29301;47.620;19.560;2023-02-02T05:46:29;3.50;91.20
43697;DHT22;29301;47.620;19.560;2023-02-02T05:48:54;3.40;91.40
43697;DHT22;29301;47.620;19.560;2023-02-02T05:51:26;3.40;91.40
43697;DHT22;29301;47.620;19.560;2023-02-02T05:53:53;3.40;91.50
43697;DHT22;29301;47.620;19.560;2023-02-02T05:56:18;3.30;91.70
43697;DHT22;29301;47.620;19.560;2023-02-02T05:58:44;3.30;91.60
43697;DHT22;29301;47.620;19.560;2023-02-02T06:01:13;3.30;91.80
43697;DHT22;29301;47.620;19.560;2023-02-02T06:03:38;3.30;91.80
43697;DHT22;29301;47.620;19.560;2023-02-02T06:06:04;3.30;91.90
43697;DHT22;29301;47.620;19.560;2023-02-02T06:08:30;3.20;91.90
43697;DHT22;29301;47.620;19.560;2023-02-02T06:10:56;3.20;91.90
43697;DHT22;29301;47.620;19.560;2023-02-02T06:13:21;3.20;92.00
43697;DHT22;29301;47.620;19.560;2023-02-02T06:15:47;3.20;92.00
43697;DHT22;29301;47.620;19.560;2023-02-02T06:18:13;3.20;92.10
43697;DHT22;29301;47.620;19.560;2023-02-02T06:20:39;3.20;92.10
43697;DHT22;29301;47.620;19.560;2023-02-02T06:23:05;3.20;92.10
43697;DHT22;29301;47.620;19.560;2023-02-02T06:25:31;3.10;92.20
43697;DHT22;29301;47.620;19.560;2023-02-02T06:27:58;3.10;92.40
43697;DHT22;29301;47.620;19.560;2023-02-02T06:30:24;3.10;92.40
43697;DHT22;29301;47.620;19.560;2023-02-02T06:32:50;3.10;92.40
43697;DHT22;29301;47.620;19.560;2023-02-02T06:35:16;3.10;92.30
43697;DHT22;29301;47.620;19.560;2023-02-02T06:37:42;3.00;92.60
43697;DHT22;29301;47.620;19.560;2023-02-02T06:40:08;3.00;92.90
43697;DHT22;29301;47.620;19.560;2023-02-02T06:42:34;3.00;93.10
43697;DHT22;29301;47.620;19.560;2023-02-02T06:45:01;2.90;93.10
43697;DHT22;29301;47.620;19.560;2023-02-02T06:47:27;2.90;93.00
43697;DHT22;29301;47.620;19.560;2023-02-02T06:49:53;2.90;93.00
43697;DHT22;29301;47.620;19.560;2023-02-02T06:52:19;3.00;92.80
43697;DHT22;29301;47.620;19.560;2023-02-02T06:54:44;3.00;92.80
43697;DHT22;29301;47.620;19.560;2023-02-02T06:57:10;3.00;92.60
43697;DHT22;29301;47.620;19.560;2023-02-02T06:59:36;3.00;92.60
43697;DHT22;29301;47.620;19.560;2023-02-02T07:02:02;3.00;92.60
43697;DHT22;29301;47.620;19.560;2023-02-02T07:04:28;3.00;92.70
43697;DHT22;29301;47.620;19.560;2023-02-02T07:06:54;3.00;92.80
43697;DHT22;29301;47.620;19.560;2023-02-02T07:09:19;3.00;92.70
43697;DHT22;29301;47.620;19.560;2023-02-02T07:11:45;3.00;92.50
43697;DHT22;29301;47.620;19.560;2023-02-02T07:14:11;3.10;92.50
43697;DHT22;29301;47.620;19.560;2023-02-02T07:16:37;3.10;92.30
43697;DHT22;29301;47.620;19.560;2023-02-02T07:19:02;3.10;92.30
43697;DHT22;29301;47.620;19.560;2023-02-02T07:21:28;3.20;91.90
43697;DHT22;29301;47.620;19.560;2023-02-02T07:24:00;3.20;91.70
43697;DHT22;29301;47.620;19.560;2023-02-02T07:26:27;3.30;91.60
43697;DHT22;29301;47.620;19.560;2023-02-02T07:28:53;3.30;91.30
43697;DHT22;29301;47.620;19.560;2023-02-02T07:31:21;3.40;91.30
43697;DHT22;29301;47.620;19.560;2023-02-02T07:33:48;3.50;90.80
43697;DHT22;29301;47.620;19.560;2023-02-02T07:36:16;3.60;90.50
43697;DHT22;29301;47.620;19.560;2023-02-02T07:38:44;3.70;90.20
43697;DHT22;29301;47.620;19.560;2023-02-02T07:41:10;3.80;90.00
43697;DHT22;29301;47.620;19.560;2023-02-02T07:43:36;4.10;89.00
43697;DHT22;29301;47.620;19.560;2023-02-02T07:46:04;4.20;87.40
43697;DHT22;29301;47.620;19.560;2023-02-02T07:48:31;4.30;86.40
43697;DHT22;29301;47.620;19.560;2023-02-02T07:51:02;4.60;85.90
43697;DHT22;29301;47.620;19.560;2023-02-02T07:53:28;4.80;83.80
43697;DHT22;29301;47.620;19.560;2023-02-02T07:58:36;5.00;80.30
43697;DHT22;29301;47.620;19.560;2023-02-02T08:01:06;5.00;78.40
43697;DHT22;29301;47.620;19.560;2023-02-02T08:03:33;5.00;77.30
43697;DHT22;29301;47.620;19.560;2023-02-02T08:05:59;5.20;78.10
43697;DHT22;29301;47.620;19.560;2023-02-02T08:08:25;5.30;77.70
43697;DHT22;29301;47.620;19.560;2023-02-02T08:10:52;5.60;75.90
43697;DHT22;29301;47.620;19.560;2023-02-02T08:13:18;5.60;73.40
43697;DHT22;29301;47.620;19.560;2023-02-02T08:15:44;5.80;73.20
43697;DHT22;29301;47.620;19.560;2023-02-02T08:18:10;5.80;71.90
43697;DHT22;29301;47.620;19.560;2023-02-02T08:20:36;5.80;71.60
43697;DHT22;29301;47.620;19.560;2023-02-02T08:23:02;5.90;71.60
43697;DHT22;29301;47.620;19.560;2023-02-02T08:25:27;6.00;70.60
43697;DHT22;29301;47.620;19.560;2023-02-02T08:27:57;6.10;69.90
43697;DHT22;29301;47.620;19.560;2023-02-02T08:30:23;6.20;69.00
43697;DHT22;29301;47.620;19.560;2023-02-02T08:32:49;6.10;68.50
43697;DHT22;29301;47.620;19.560;2023-02-02T08:35:15;6.20;68.10
43697;DHT22;29301;47.620;19.560;2023-02-02T08:37:41;6.20;68.00
43697;DHT22;29301;47.620;19.560;2023-02-02T08:40:07;6.30;68.10
43697;DHT22;29301;47.620;19.560;2023-02-02T08:42:33;6.40;67.20
43697;DHT22;29301;47.620;19.560;2023-02-02T08:44:59;6.40;68.10
43697;DHT22;29301;47.620;19.560;2023-02-02T08:47:28;6.30;68.70
43697;DHT22;29301;47.620;19.560;2023-02-02T08:49:54;6.40;68.30
43697;DHT22;29301;47.620;19.560;2023-02-02T08:52:19;6.40;67.80
43697;DHT22;29301;47.620;19.560;2023-02-02T08:54:45;6.50;67.10
43697;DHT22;29301;47.620;19.560;2023-02-02T08:57:10;6.60;65.70
43697;DHT22;29301;47.620;19.560;2023-02-02T08:59:36;6.80;65.90
43697;DHT22;29301;47.620;19.560;2023-02-02T09:02:02;7.00;65.20
43697;DHT22;29301;47.620;19.560;2023-02-02T09:04:28;7.00;64.60
43697;DHT22;29301;47.620;19.560;2023-02-02T09:06:54;6.80;64.10
43697;DHT22;29301;47.620;19.560;2023-02-02T09:09:19;7.00;64.10
43697;DHT22;29301;47.620;19.560;2023-02-02T09:11:45;7.10;63.70
43697;DHT22;29301;47.620;19.560;2023-02-02T09:14:11;7.30;63.90
43697;DHT22;29301;47.620;19.560;2023-02-02T09:16:38;7.40;62.70
43697;DHT22;29301;47.620;19.560;2023-02-02T09:19:04;7.50;63.10
43697;DHT22;29301;47.620;19.560;2023-02-02T09:21:30;7.60;60.90
43697;DHT22;29301;47.620;19.560;2023-02-02T09:24:05;7.50;59.90
43697;DHT22;29301;47.620;19.560;2023-02-02T09:26:31;7.40;60.10
43697;DHT22;29301;47.620;19.560;2023-02-02T09:28:59;7.40;60.70
43697;DHT22;29301;47.620;19.560;2023-02-02T09:31:29;7.30;60.40
43697;DHT22;29301;47.620;19.560;2023-02-02T09:34:03;7.10;61.70
43697;DHT22;29301;47.620;19.560;2023-02-02T09:36:29;6.90;61.60
43697;DHT22;29301;47.620;19.560;2023-02-02T09:38:55;6.80;61.80
43697;DHT22;29301;47.620;19.560;2023-02-02T09:47:19;6.60;63.60
43697;DHT22;29301;47.620;19.560;2023-02-02T09:55:11;6.50;63.50
43697;DHT22;29301;47.620;19.560;2023-02-02T09:57:45;6.40;63.60
43697;DHT22;29301;47.620;19.560;2023-02-02T10:00:40;6.30;63.10
43697;DHT22;29301;47.620;19.560;2023-02-02T10:03:43;6.20;63.60
43697;DHT22;29301;47.620;19.560;2023-02-02T10:06:36;6.20;64.20
43697;DHT22;29301;47.620;19.560;2023-02-02T10:12:40;6.20;64.20
43697;DHT22;29301;47.620;19.560;2023-02-02T10:15:40;6.20;64.50
43697;DHT22;29301;47.620;19.560;2023-02-02T10:18:12;6.20;65.10
43697;DHT22;29301;47.620;19.560;2023-02-02T10:20:50;6.10;64.70
43697;DHT22;29301;47.620;19.560;2023-02-02T10:23:26;6.10;64.00
43697;DHT22;29301;47.620;19.560;2023-02-02T10:26:13;6.20;66.10
43697;DHT22;29301;47.620;19.560;2023-02-02T10:37:32;6.80;63.80
43697;DHT22;29301;47.620;19.560;2023-02-02T10:43:00;7.00;61.50
43697;DHT22;29301;47.620;19.560;2023-02-02T10:45:50;7.10;61.80
43697;DHT22;29301;47.620;19.560;2023-02-02T10:48:19;6.90;61.10
43697;DHT22;29301;47.620;19.560;2023-02-02T10:50:53;6.80;60.90
43697;DHT22;29301;47.620;19.560;2023-02-02T10:53:19;6.80;60.60
43697;DHT22;29301;47.620;19.560;2023-02-02T10:58:29;6.80;60.40
43697;DHT22;29301;47.620;19.560;2023-02-02T11:00:57;6.80;60.50
43697;DHT22;29301;47.620;19.560;2023-02-02T11:03:32;6.80;59.90
43697;DHT22;29301;47.620;19.560;2023-02-02T11:06:00;6.80;60.10
43697;DHT22;29301;47.620;19.560;2023-02-02T11:08:47;6.80;59.80
43697;DHT22;29301;47.620;19.560;2023-02-02T11:16:26;6.70;59.50
43697;DHT22;29301;47.620;19.560;2023-02-02T11:18:53;6.60;59.00
43697;DHT22;29301;47.620;19.560;2023-02-02T11:21:32;6.60;60.40
43697;DHT22;29301;47.620;19.560;2023-02-02T11:24:04;6.60;59.70
43697;DHT22;29301;47.620;19.560;2023-02-02T11:27:00;6.60;60.40
43697;DHT22;29301;47.620;19.560;2023-02-02T11:29:32;6.70;60.80
43697;DHT22;29301;47.620;19.560;2023-02-02T11:32:19;6.70;61.10
43697;DHT22;29301;47.620;19.560;2023-02-02T11:34:45;6.70;61.50
43697;DHT22;29301;47.620;19.560;2023-02-02T11:37:20;6.80;60.80
43697;DHT22;29301;47.620;19.560;2023-02-02T11:39:45;6.90;61.00
43697;DHT22;29301;47.620;19.560;2023-02-02T11:42:14;7.00;60.50
43697;DHT22;29301;47.620;19.560;2023-02-02T11:44:52;7.10;60.50
43697;DHT22;29301;47.620;19.560;2023-02-02T11:47:27;7.20;60.20
43697;DHT22;29301;47.620;19.560;2023-02-02T11:49:54;7.20;59.90
43697;DHT22;29301;47.620;19.560;2023-02-02T11:52:23;7.10;58.80
43697;DHT22;29301;47.620;19.560;2023-02-02T11:54:55;7.10;60.10
43697;DHT22;29301;47.620;19.560;2023-02-02T11:57:23;7.20;61.10
43697;DHT22;29301;47.620;19.560;2023-02-02T11:59:51;7.40;60.00
43697;DHT22;29301;47.620;19.560;2023-02-02T12:02:30;7.40;58.60
43697;DHT22;29301;47.620;19.560;2023-02-02T12:05:35;7.30;58.00
43697;DHT22;29301;47.620;19.560;2023-02-02T12:08:00;7.30;58.90
43697;DHT22;29301;47.620;19.560;2023-02-02T12:13:33;7.10;58.60
43697;DHT22;29301;47.620;19.560;2023-02-02T12:22:09;6.90;59.40
43697;DHT22;29301;47.620;19.560;2023-02-02T12:27:43;6.80;59.20
43697;DHT22;29301;47.620;19.560;2023-02-02T12:44:06;6.50;59.50
43697;DHT22;29301;47.620;19.560;2023-02-02T12:52:40;6.50;59.90
43697;DHT22;29301;47.620;19.560;2023-02-02T12:55:15;6.50;60.00
43697;DHT22;29301;47.620;19.560;2023-02-02T13:07:09;6.60;60.90
43697;DHT22;29301;47.620;19.560;2023-02-02T13:12:33;6.60;60.20
43697;DHT22;29301;47.620;19.560;2023-02-02T13:15:05;6.60;60.00
43697;DHT22;29301;47.620;19.560;2023-02-02T13:22:46;6.60;60.10
43697;DHT22;29301;47.620;19.560;2023-02-02T13:25:28;6.60;60.30
43697;DHT22;29301;47.620;19.560;2023-02-02T13:27:57;6.60;61.10
43697;DHT22;29301;47.620;19.560;2023-02-02T13:30:33;6.60;60.70
43697;DHT22;29301;47.620;19.560;2023-02-02T13:33:10;6.60;61.30
43697;DHT22;29301;47.620;19.560;2023-02-02T13:38:36;6.60;61.10
43697;DHT22;29301;47.620;19.560;2023-02-02T13:41:08;6.60;61.30
43697;DHT22;29301;47.620;19.560;2023-02-02T14:00:21;6.40;61.70
43697;DHT22;29301;47.620;19.560;2023-02-02T14:02:50;6.30;61.70
43697;DHT22;29301;47.620;19.560;2023-02-02T14:05:29;6.30;61.50
43697;DHT22;29301;47.620;19.560;2023-02-02T14:08:01;6.40;61.80
43697;DHT22;29301;47.620;19.560;2023-02-02T14:10:54;6.30;61.80
43697;DHT22;29301;47.620;19.560;2023-02-02T14:13:28;6.30;62.10
43697;DHT22;29301;47.620;19.560;2023-02-02T14:16:45;6.20;61.90
43697;DHT22;29301;47.620;19.560;2023-02-02T14:24:47;6.20;62.70
43697;DHT22;29301;47.620;19.560;2023-02-02T14:46:31;6.10;63.60
43697;DHT22;29301;47.620;19.560;2023-02-02T14:51:28;6.10;64.00
43697;DHT22;29301;47.620;19.560;2023-02-02T14:53:59;6.10;63.70
43697;DHT22;29301;47.620;19.560;2023-02-02T14:56:48;6.00;63.90
43697;DHT22;29301;47.620;19.560;2023-02-02T14:59:38;6.00;64.10
43697;DHT22;29301;47.620;19.560;2023-02-02T15:02:18;6.00;63.30
43697;DHT22;29301;47.620;19.560;2023-02-02T15:04:44;6.00;63.60
43697;DHT22;29301;47.620;19.560;2023-02-02T15:09:49;6.00;64.00
43697;DHT22;29301;47.620;19.560;2023-02-02T15:33:38;5.80;64.90
43697;DHT22;29301;47.620;19.560;2023-02-02T15:36:25;5.70;65.00
43697;DHT22;29301;47.620;19.560;2023-02-02T15:38:55;5.70;64.90
43697;DHT22;29301;47.620;19.560;2023-02-02T15:41:35;5.70;65.40
43697;DHT22;29301;47.620;19.560;2023-02-02T15:44:20;5.70;65.10
43697;DHT22;29301;47.620;19.560;2023-02-02T15:46:47;5.60;65.40
43697;DHT22;29301;47.620;19.560;2023-02-02T15:51:50;5.60;65.70
43697;DHT22;29301;47.620;19.560;2023-02-02T15:54:23;5.70;65.60
43697;DHT22;29301;47.620;19.560;2023-02-02T15:56:51;5.60;65.70
43697;DHT22;29301;47.620;19.560;2023-02-02T15:59:19;5.60;65.70
43697;DHT22;29301;47.620;19.560;2023-02-02T16:01:48;5.60;65.80
43697;DHT22;29301;47.620;19.560;2023-02-02T16:04:23;5.50;65.40
43697;DHT22;29301;47.620;19.560;2023-02-02T16:06:51;5.50;65.80
43697;DHT22;29301;47.620;19.560;2023-02-02T16:09:33;5.50;65.90
43697;DHT22;29301;47.620;19.560;2023-02-02T16:12:00;5.50;66.10
43697;DHT22;29301;47.620;19.560;2023-02-02T16:14:29;5.50;66.00
43697;DHT22;29301;47.620;19.560;2023-02-02T16:17:12;5.50;66.50
43697;DHT22;29301;47.620;19.560;2023-02-02T16:19:40;5.40;66.70
43697;DHT22;29301;47.620;19.560;2023-02-02T16:22:12;5.40;66.90
43697;DHT22;29301;47.620;19.560;2023-02-02T16:24:44;5.40;67.20
43697;DHT22;29301;47.620;19.560;2023-02-02T16:27:13;5.40;67.30
43697;DHT22;29301;47.620;19.560;2023-02-02T16:29:42;5.30;67.00
43697;DHT22;29301;47.620;19.560;2023-02-02T16:32:35;5.30;67.40
43697;DHT22;29301;47.620;19.560;2023-02-02T16:35:22;5.30;67.50
43697;DHT22;29301;47.620;19.560;2023-02-02T16:37:48;5.30;67.60
43697;DHT22;29301;47.620;19.560;2023-02-02T16:40:25;5.30;67.40
43697;DHT22;29301;47.620;19.560;2023-02-02T16:43:27;5.20;67.80
43697;DHT22;29301;47.620;19.560;2023-02-02T16:45:57;5.20;67.80
43697;DHT22;29301;47.620;19.560;2023-02-02T16:53:30;5.10;68.50
43697;DHT22;29301;47.620;19.560;2023-02-02T16:55:56;5.20;69.00
43697;DHT22;29301;47.620;19.560;2023-02-02T16:58:25;5.20;68.80
43697;DHT22;29301;47.620;19.560;2023-02-02T17:01:11;5.20;68.90
43697;DHT22;29301;47.620;19.560;2023-02-02T17:03:41;5.20;69.20
43697;DHT22;29301;47.620;19.560;2023-02-02T17:06:09;5.10;69.30
43697;DHT22;29301;47.620;19.560;2023-02-02T17:08:37;5.10;69.70
43697;DHT22;29301;47.620;19.560;2023-02-02T17:11:07;5.10;69.80
43697;DHT22;29301;47.620;19.560;2023-02-02T17:13:43;5.10;70.10
43697;DHT22;29301;47.620;19.560;2023-02-02T17:16:15;5.00;70.50
43697;DHT22;29301;47.620;19.560;2023-02-02T17:18:41;5.00;70.30
43697;DHT22;29301;47.620;19.560;2023-02-02T17:21:13;5.00;70.20
43697;DHT22;29301;47.620;19.560;2023-02-02T17:23:40;5.00;70.80
43697;DHT22;29301;47.620;19.560;2023-02-02T17:26:07;4.90;70.80
43697;DHT22;29301;47.620;19.560;2023-02-02T17:28:34;4.90;70.90
43697;DHT22;29301;47.620;19.560;2023-02-02T17:31:09;4.90;71.30
43697;DHT22;29301;47.620;19.560;2023-02-02T17:33:36;4.90;72.00
43697;DHT22;29301;47.620;19.560;2023-02-02T17:36:03;4.80;72.90
43697;DHT22;29301;47.620;19.560;2023-02-02T17:38:29;4.80;73.90
43697;DHT22;29301;47.620;19.560;2023-02-02T17:40:57;4.70;74.60
43697;DHT22;29301;47.620;19.560;2023-02-02T17:43:23;4.70;75.40
43697;DHT22;29301;47.620;19.560;2023-02-02T17:45:49;4.70;76.00
43697;DHT22;29301;47.620;19.560;2023-02-02T17:48:15;4.60;76.50
43697;DHT22;29301;47.620;19.560;2023-02-02T17:50:41;4.60;77.00
43697;DHT22;29301;47.620;19.560;2023-02-02T17:53:13;4.60;77.30
43697;DHT22;29301;47.620;19.560;2023-02-02T17:55:40;4.60;77.40
43697;DHT22;29301;47.620;19.560;2023-02-02T17:58:08;4.50;77.70
43697;DHT22;29301;47.620;19.560;2023-02-02T18:00:35;4.50;77.80
43697;DHT22;29301;47.620;19.560;2023-02-02T18:03:15;4.50;77.90
43697;DHT22;29301;47.620;19.560;2023-02-02T18:05:43;4.50;77.90
43697;DHT22;29301;47.620;19.560;2023-02-02T18:08:13;4.50;77.70
43697;DHT22;29301;47.620;19.560;2023-02-02T18:10:39;4.50;77.80
43697;DHT22;29301;47.620;19.560;2023-02-02T18:13:05;4.40;78.00
43697;DHT22;29301;47.620;19.560;2023-02-02T18:15:31;4.40;78.10
43697;DHT22;29301;47.620;19.560;2023-02-02T18:17:59;4.40;78.40
43697;DHT22;29301;47.620;19.560;2023-02-02T18:20:26;4.40;78.30
43697;DHT22;29301;47.620;19.560;2023-02-02T18:22:52;4.40;78.10
43697;DHT22;29301;47.620;19.560;2023-02-02T18:25:18;4.40;77.90
43697;DHT22;29301;47.620;19.560;2023-02-02T18:27:44;4.40;78.10
43697;DHT22;29301;47.620;19.560;2023-02-02T18:30:10;4.40;78.30
43697;DHT22;29301;47.620;19.560;2023-02-02T18:32:37;4.30;78.30
43697;DHT22;29301;47.620;19.560;2023-02-02T18:35:04;4.40;78.50
43697;DHT22;29301;47.620;19.560;2023-02-02T18:37:30;4.30;78.70
43697;DHT22;29301;47.620;19.560;2023-02-02T18:39:56;4.30;79.00
43697;DHT22;29301;47.620;19.560;2023-02-02T18:42:22;4.30;79.10
43697;DHT22;29301;47.620;19.560;2023-02-02T18:44:48;4.30;79.20
43697;DHT22;29301;47.620;19.560;2023-02-02T18:47:13;4.30;79.50
43697;DHT22;29301;47.620;19.560;2023-02-02T18:49:39;4.30;80.00
43697;DHT22;29301;47.620;19.560;2023-02-02T18:52:05;4.30;80.10
43697;DHT22;29301;47.620;19.560;2023-02-02T18:54:31;4.30;80.50
43697;DHT22;29301;47.620;19.560;2023-02-02T18:56:59;4.30;80.60
43697;DHT22;29301;47.620;19.560;2023-02-02T18:59:25;4.20;80.90